Karmel — 9HA2896 — position and weather

sailwx.info

Track history (hours):
 
Tides and Currents Weather Stations Pressure Air Temp Water Temp Dewpoint Dewpoint Depression Visibility Wind Speed Wind Dir Waves Ship Positions

Karmel

Last reported at 2017-Nov-18 02:35 UTC. Time now 2017-Nov-19 05:01 UTC.
Position N 56°05' E 016°49'.

Length 90 m; draft 5.2 m.

Type: Ship. MMSI: 256632000.

Date/timePositionNaut miles runAvg speedWind from/ knotsBaromVisibWave heightAir tempDewpointWater temp
2017-Nov-18 02:35N 56°05' E 016°49'110.4
2017-Nov-18 02:30N 56°04' E 016°48'510.7
2017-Nov-18 02:00N 56°02' E 016°39'510.7
2017-Nov-18 01:30N 55°59' E 016°31'510.7
2017-Nov-18 01:00N 55°56' E 016°23'510.6
2017-Nov-18 00:30N 55°54' E 016°14'510.6
2017-Nov-18 00:00N 55°51' E 016°06'510.5
2017-Nov-17 23:30N 55°49' E 015°58'510.5
2017-Nov-17 23:00N 55°46' E 015°50'510.4
2017-Nov-17 22:30N 55°44' E 015°42'510.3
2017-Nov-17 22:00N 55°41' E 015°34'510.2
2017-Nov-17 21:30N 55°39' E 015°26'510.4
2017-Nov-17 21:00N 55°36' E 015°18'1310.4
2017-Nov-17 19:48N 55°30' E 014°58'1210.4
2017-Nov-17 18:41N 55°24' E 014°41'210.6
2017-Nov-17 18:27N 55°23' E 014°37'510.5
2017-Nov-17 18:00N 55°19' E 014°32'610.2
2017-Nov-17 17:24N 55°14' E 014°26'46 9.9
2017-Nov-17 12:45N 55°14' E 013°05'310.4
2017-Nov-17 12:30N 55°14' E 013°00'510.1
2017-Nov-17 12:00N 55°15' E 012°51'510.5
2017-Nov-17 11:30N 55°17' E 012°43'4 8.0
2017-Nov-17 11:00N 55°20' E 012°39'510.2
2017-Nov-17 10:30N 55°25' E 012°40'510.5
2017-Nov-17 10:00N 55°30' E 012°41'511.0
2017-Nov-17 09:30N 55°36' E 012°42'611.7
2017-Nov-17 09:00N 55°42' E 012°41'510.5
2017-Nov-17 08:30N 55°47' E 012°41'510.3
2017-Nov-17 08:00N 55°52' E 012°39'510.6
2017-Nov-17 07:30N 55°57' E 012°38'510.2
2017-Nov-17 07:00N 56°02' E 012°39'611.3
2017-Nov-17 06:30N 56°07' E 012°32'611.1
2017-Nov-17 05:57N 56°10' E 012°23'91 8.9
2017-Nov-16 19:46N 57°22' E 010°43'310.2
2017-Nov-16 19:30N 57°25' E 010°43'510.1
2017-Nov-16 19:00N 57°30' E 010°43'510.0
2017-Nov-16 18:28N 57°35' E 010°40'5 9.8
2017-Nov-16 18:00N 57°40' E 010°37'3 5.8
2017-Nov-16 17:30N 57°43' E 010°38'0 0.0
2017-Nov-16 17:00N 57°43' E 010°38'0 0.1
2017-Nov-16 16:30N 57°42' E 010°38'4 7.5
2017-Nov-16 16:00N 57°43' E 010°45'4 8.4
2017-Nov-16 15:30N 57°47' E 010°40'35910.4
2017-Nov-15 05:03N 52°60' E 004°21'110.2
2017-Nov-15 04:59N 52°59' E 004°20'510.3
2017-Nov-15 04:29N 52°54' E 004°16'9611.2
2017-Nov-14 19:58N 51°43' E 002°31'510.0
2017-Nov-14 19:28N 51°40' E 002°26'5 9.6
2017-Nov-14 18:59N 51°36' E 002°21'4 9.4
2017-Nov-14 18:30N 51°33' E 002°16'5 8.8
2017-Nov-14 17:58N 51°29' E 002°11'4 8.8
2017-Nov-14 17:30N 51°26' E 002°07'4 8.7
2017-Nov-14 17:01N 51°23' E 002°02'4 8.8
2017-Nov-14 16:30N 51°19' E 001°58'4 8.9
2017-Nov-14 16:01N 51°16' E 001°53'4 9.0
2017-Nov-14 15:30N 51°13' E 001°49'5 9.2
2017-Nov-14 15:00N 51°09' E 001°44'5 9.5
2017-Nov-14 14:31N 51°06' E 001°39'5 9.7
2017-Nov-14 14:00N 51°02' E 001°34'510.3
2017-Nov-14 13:30N 50°57' E 001°30'6810.2
2017-Nov-14 06:50N 50°19' E 000°02'512.2
2017-Nov-14 06:26N 50°18' W 000°06'512.6
2017-Nov-14 06:00N 50°18' W 000°14'9010.7
2017-Nov-13 21:35N 50°13' W 002°35'252 9.0
2017-Nov-12 17:33N 51°07' W 009°04'010.2
2017-Nov-12 17:30N 51°07' W 009°04'510.0
2017-Nov-12 17:00N 51°09' W 009°12'510.0
2017-Nov-12 16:30N 51°11' W 009°19'1010.1
2017-Nov-12 15:32N 51°14' W 009°34'110.0
2017-Nov-12 15:29N 51°14' W 009°34'510.1
2017-Nov-12 15:00N 51°17' W 009°41'5 9.8
2017-Nov-12 14:30N 51°20' W 009°48'510.4
2017-Nov-12 14:00N 51°22' W 009°55'510.7
2017-Nov-12 13:30N 51°25' W 010°02'611.2
2017-Nov-12 13:00N 51°29' W 010°09'611.3
2017-Nov-12 12:29N 51°32' W 010°17'40 9.1
2017-Nov-12 08:06N 52°10' W 010°35'1 8.8
2017-Nov-12 07:58N 52°11' W 010°34'5 9.2
2017-Nov-12 07:28N 52°14' W 010°28'22 9.4
2017-Nov-12 05:07N 52°28' W 010°00'  
2017-Nov-08 14:57N 51°44' W 010°35'10 8.1
2017-Nov-08 13:39N 51°36' W 010°24'1 8.3
2017-Nov-08 13:29N 51°35' W 010°23'4 8.2
2017-Nov-08 13:00N 51°33' W 010°18'4 8.5
2017-Nov-08 12:30N 51°31' W 010°12'4 8.3
2017-Nov-08 12:00N 51°29' W 010°06'4 8.6
2017-Nov-08 11:30N 51°27' W 009°59'4 8.9
2017-Nov-08 11:00N 51°25' W 009°53'4 8.9
2017-Nov-08 10:30N 51°23' W 009°47'5 9.3
2017-Nov-08 10:00N 51°21' W 009°40'4 8.0
2017-Nov-08 09:30N 51°21' W 009°33'4 7.8
2017-Nov-08 09:00N 51°23' W 009°28'4 8.0
2017-Nov-08 08:30N 51°24' W 009°21'4 8.0
2017-Nov-08 08:01N 51°25' W 009°15'4 7.9
2017-Nov-08 07:30N 51°26' W 009°09'4 7.7
2017-Nov-08 07:00N 51°28' W 009°03'4 7.3
2017-Nov-08 06:30N 51°28' W 008°58'4 7.3
2017-Nov-08 05:53N 51°29' W 008°50'3 7.2
2017-Nov-08 05:30N 51°29' W 008°46'4 7.3
2017-Nov-08 04:59N 51°28' W 008°40'4 7.5
2017-Nov-08 04:30N 51°28' W 008°34'4 7.5
2017-Nov-08 03:59N 51°28' W 008°28'5 7.8
2017-Nov-08 03:23N 51°28' W 008°20'3 8.0
2017-Nov-08 03:00N 51°28' W 008°16'  
Track history (hours):
 
Tides and Currents Weather Stations Pressure Air Temp Water Temp Dewpoint Dewpoint Depression Visibility Wind Speed Wind Dir Waves Ship Positions

Karmel

Last reported at 2017-Nov-18 02:35 UTC. Time now 2017-Nov-19 05:01 UTC.
Position N 56°05' E 016°49'.

Length 90 m; draft 5.2 m.

Type: Ship. MMSI: 256632000.

Date/timePositionNaut miles runAvg speedWind from/ knotsBaromVisibWave heightAir tempDewpointWater temp
2017-Nov-18 02:35N 56°05' E 016°49'110.4
2017-Nov-18 02:30N 56°04' E 016°48'510.7
2017-Nov-18 02:00N 56°02' E 016°39'510.7
2017-Nov-18 01:30N 55°59' E 016°31'510.7
2017-Nov-18 01:00N 55°56' E 016°23'510.6
2017-Nov-18 00:30N 55°54' E 016°14'510.6
2017-Nov-18 00:00N 55°51' E 016°06'510.5
2017-Nov-17 23:30N 55°49' E 015°58'510.5
2017-Nov-17 23:00N 55°46' E 015°50'510.4
2017-Nov-17 22:30N 55°44' E 015°42'510.3
2017-Nov-17 22:00N 55°41' E 015°34'510.2
2017-Nov-17 21:30N 55°39' E 015°26'510.4
2017-Nov-17 21:00N 55°36' E 015°18'1310.4
2017-Nov-17 19:48N 55°30' E 014°58'1210.4
2017-Nov-17 18:41N 55°24' E 014°41'210.6
2017-Nov-17 18:27N 55°23' E 014°37'510.5
2017-Nov-17 18:00N 55°19' E 014°32'610.2
2017-Nov-17 17:24N 55°14' E 014°26'46 9.9
2017-Nov-17 12:45N 55°14' E 013°05'310.4
2017-Nov-17 12:30N 55°14' E 013°00'510.1
2017-Nov-17 12:00N 55°15' E 012°51'510.5
2017-Nov-17 11:30N 55°17' E 012°43'4 8.0
2017-Nov-17 11:00N 55°20' E 012°39'510.2
2017-Nov-17 10:30N 55°25' E 012°40'510.5
2017-Nov-17 10:00N 55°30' E 012°41'511.0
2017-Nov-17 09:30N 55°36' E 012°42'611.7
2017-Nov-17 09:00N 55°42' E 012°41'510.5
2017-Nov-17 08:30N 55°47' E 012°41'510.3
2017-Nov-17 08:00N 55°52' E 012°39'510.6
2017-Nov-17 07:30N 55°57' E 012°38'510.2
2017-Nov-17 07:00N 56°02' E 012°39'611.3
2017-Nov-17 06:30N 56°07' E 012°32'611.1
2017-Nov-17 05:57N 56°10' E 012°23'91 8.9
2017-Nov-16 19:46N 57°22' E 010°43'310.2
2017-Nov-16 19:30N 57°25' E 010°43'510.1
2017-Nov-16 19:00N 57°30' E 010°43'510.0
2017-Nov-16 18:28N 57°35' E 010°40'5 9.8
2017-Nov-16 18:00N 57°40' E 010°37'3 5.8
2017-Nov-16 17:30N 57°43' E 010°38'0 0.0
2017-Nov-16 17:00N 57°43' E 010°38'0 0.1
2017-Nov-16 16:30N 57°42' E 010°38'4 7.5
2017-Nov-16 16:00N 57°43' E 010°45'4 8.4
2017-Nov-16 15:30N 57°47' E 010°40'35910.4
2017-Nov-15 05:03N 52°60' E 004°21'110.2
2017-Nov-15 04:59N 52°59' E 004°20'510.3
2017-Nov-15 04:29N 52°54' E 004°16'9611.2
2017-Nov-14 19:58N 51°43' E 002°31'510.0
2017-Nov-14 19:28N 51°40' E 002°26'5 9.6
2017-Nov-14 18:59N 51°36' E 002°21'4 9.4
2017-Nov-14 18:30N 51°33' E 002°16'5 8.8
2017-Nov-14 17:58N 51°29' E 002°11'4 8.8
2017-Nov-14 17:30N 51°26' E 002°07'4 8.7
2017-Nov-14 17:01N 51°23' E 002°02'4 8.8
2017-Nov-14 16:30N 51°19' E 001°58'4 8.9
2017-Nov-14 16:01N 51°16' E 001°53'4 9.0
2017-Nov-14 15:30N 51°13' E 001°49'5 9.2
2017-Nov-14 15:00N 51°09' E 001°44'5 9.5
2017-Nov-14 14:31N 51°06' E 001°39'5 9.7
2017-Nov-14 14:00N 51°02' E 001°34'510.3
2017-Nov-14 13:30N 50°57' E 001°30'6810.2
2017-Nov-14 06:50N 50°19' E 000°02'512.2
2017-Nov-14 06:26N 50°18' W 000°06'512.6
2017-Nov-14 06:00N 50°18' W 000°14'9010.7
2017-Nov-13 21:35N 50°13' W 002°35'252 9.0
2017-Nov-12 17:33N 51°07' W 009°04'010.2
2017-Nov-12 17:30N 51°07' W 009°04'510.0
2017-Nov-12 17:00N 51°09' W 009°12'510.0
2017-Nov-12 16:30N 51°11' W 009°19'1010.1
2017-Nov-12 15:32N 51°14' W 009°34'110.0
2017-Nov-12 15:29N 51°14' W 009°34'510.1
2017-Nov-12 15:00N 51°17' W 009°41'5 9.8
2017-Nov-12 14:30N 51°20' W 009°48'510.4
2017-Nov-12 14:00N 51°22' W 009°55'510.7
2017-Nov-12 13:30N 51°25' W 010°02'611.2
2017-Nov-12 13:00N 51°29' W 010°09'611.3
2017-Nov-12 12:29N 51°32' W 010°17'40 9.1
2017-Nov-12 08:06N 52°10' W 010°35'1 8.8
2017-Nov-12 07:58N 52°11' W 010°34'5 9.2
2017-Nov-12 07:28N 52°14' W 010°28'22 9.4
2017-Nov-12 05:07N 52°28' W 010°00'  
2017-Nov-08 14:57N 51°44' W 010°35'10 8.1
2017-Nov-08 13:39N 51°36' W 010°24'1 8.3
2017-Nov-08 13:29N 51°35' W 010°23'4 8.2
2017-Nov-08 13:00N 51°33' W 010°18'4 8.5
2017-Nov-08 12:30N 51°31' W 010°12'4 8.3
2017-Nov-08 12:00N 51°29' W 010°06'4 8.6
2017-Nov-08 11:30N 51°27' W 009°59'4 8.9
2017-Nov-08 11:00N 51°25' W 009°53'4 8.9
2017-Nov-08 10:30N 51°23' W 009°47'5 9.3
2017-Nov-08 10:00N 51°21' W 009°40'4 8.0
2017-Nov-08 09:30N 51°21' W 009°33'4 7.8
2017-Nov-08 09:00N 51°23' W 009°28'4 8.0
2017-Nov-08 08:30N 51°24' W 009°21'4 8.0
2017-Nov-08 08:01N 51°25' W 009°15'4 7.9
2017-Nov-08 07:30N 51°26' W 009°09'4 7.7
2017-Nov-08 07:00N 51°28' W 009°03'4 7.3
2017-Nov-08 06:30N 51°28' W 008°58'4 7.3
2017-Nov-08 05:53N 51°29' W 008°50'3 7.2
2017-Nov-08 05:30N 51°29' W 008°46'4 7.3
2017-Nov-08 04:59N 51°28' W 008°40'4 7.5
2017-Nov-08 04:30N 51°28' W 008°34'4 7.5
2017-Nov-08 03:59N 51°28' W 008°28'5 7.8
2017-Nov-08 03:23N 51°28' W 008°20'3 8.0
2017-Nov-08 03:00N 51°28' W 008°16'  

Dump ship's entire track history